Time;durP1;ratioP1;P1;durP2;ratioP2;P2;SDS_P1;SDS_P2;PMS_P1;PMS_P2;Temp;Humidity;BMP_temperature;BMP_pressure;BME280_temperature;BME280_humidity;BME280_pressure;Samples;Min_cycle;Max_cycle;Signal;HPM_P1;HPM_P2
2022/11/17 00:01:37;;;;;;;28.88;15.52;;;8.20;99.90;;;;;;6241703;22;20011;-82
2022/11/17 00:04:02;;;;;;;26.30;16.90;;;8.20;99.90;;;;;;6269962;22;20025;-83
2022/11/17 00:06:28;;;;;;;24.33;15.25;;;8.20;99.90;;;;;;6242810;22;20003;-83
2022/11/17 00:08:53;;;;;;;23.08;16.88;;;8.20;99.90;;;;;;6245390;22;20065;-84
2022/11/17 00:11:19;;;;;;;22.00;14.77;;;8.20;99.90;;;;;;6246642;22;20056;-83
2022/11/17 00:16:29;;;;;;;26.20;16.37;;;8.20;99.90;;;;;;6245975;22;20030;-83
2022/11/17 00:21:38;;;;;;;23.98;14.98;;;8.20;99.90;;;;;;6246484;22;20019;-83
2022/11/17 00:24:05;;;;;;;22.75;14.73;;;8.20;99.90;;;;;;6273448;22;20336;-82
2022/11/17 00:26:33;;;;;;;20.25;14.07;;;8.20;99.90;;;;;;6245821;22;20024;-83
2022/11/17 00:29:03;;;;;;;24.45;15.43;;;8.20;99.90;;;;;;6245069;22;20411;-83
2022/11/17 00:34:17;;;;;;;21.63;14.27;;;8.20;99.90;;;;;;6245335;22;20023;-82
2022/11/17 00:36:53;;;;;;;24.38;14.93;;;8.20;99.90;;;;;;6272443;22;20012;-82
2022/11/17 00:39:21;;;;;;;19.02;14.00;;;8.20;99.90;;;;;;6246851;22;20144;-82
2022/11/17 00:41:47;;;;;;;21.70;14.00;;;8.20;99.90;;;;;;6244607;22;20012;-81
2022/11/17 00:44:13;;;;;;;19.65;13.98;;;8.20;99.90;;;;;;6246063;22;20416;-82
2022/11/17 00:46:39;;;;;;;19.25;13.20;;;8.20;99.90;;;;;;6272693;22;20096;-83
2022/11/17 00:49:06;;;;;;;19.60;13.93;;;8.20;99.90;;;;;;6246393;22;20026;-82
2022/11/17 00:51:32;;;;;;;20.98;14.80;;;8.20;99.90;;;;;;6244982;22;20061;-82
2022/11/17 00:54:00;;;;;;;17.52;13.52;;;8.20;99.90;;;;;;6272832;22;20438;-82
2022/11/17 00:56:26;;;;;;;18.85;12.95;;;8.20;99.90;;;;;;6245645;22;20471;-82
2022/11/17 00:58:51;;;;;;;18.45;13.23;;;8.30;99.90;;;;;;6245338;22;20388;-82
2022/11/17 01:01:17;;;;;;;20.05;13.27;;;8.20;99.90;;;;;;6273172;22;20012;-82
2022/11/17 01:03:43;;;;;;;18.17;12.65;;;8.20;99.90;;;;;;6245917;22;20020;-82
2022/11/17 01:06:18;;;;;;;18.10;13.27;;;8.20;99.90;;;;;;6220612;22;20504;-82
2022/11/17 01:08:44;;;;;;;18.63;12.57;;;8.20;99.90;;;;;;6245161;22;20007;-82
2022/11/17 01:11:11;;;;;;;17.58;13.20;;;8.20;99.90;;;;;;6272709;22;20332;-82
2022/11/17 01:13:38;;;;;;;17.70;13.23;;;8.20;99.90;;;;;;6245806;22;20016;-82
2022/11/17 01:16:15;;;;;;;19.38;13.95;;;8.20;99.90;;;;;;6272591;22;20026;-82
2022/11/17 01:18:42;;;;;;;19.23;13.90;;;8.20;99.90;;;;;;6273110;22;20075;-82
2022/11/17 01:21:14;;;;;;;17.58;12.45;;;8.20;99.90;;;;;;6272899;22;20018;-82
2022/11/17 01:23:42;;;;;;;17.90;13.55;;;8.20;99.90;;;;;;6272698;22;20015;-82
2022/11/17 01:26:13;;;;;;;19.40;14.07;;;8.20;99.90;;;;;;6245097;22;20103;-82
2022/11/17 01:28:39;;;;;;;19.25;13.88;;;8.20;99.90;;;;;;6272894;22;20014;-82
2022/11/17 01:31:11;;;;;;;20.58;14.00;;;8.20;99.90;;;;;;6244523;22;20023;-82
2022/11/17 01:33:36;;;;;;;19.92;14.07;;;8.20;99.90;;;;;;6219586;22;20050;-82
2022/11/17 01:36:09;;;;;;;19.10;13.55;;;8.20;99.90;;;;;;6244298;22;20015;-82
2022/11/17 01:38:35;;;;;;;17.42;13.40;;;8.20;99.90;;;;;;6245437;22;20020;-82
2022/11/17 01:41:02;;;;;;;20.90;14.25;;;8.20;99.90;;;;;;6244854;22;20027;-82
2022/11/17 01:43:55;;;;;;;20.10;14.13;;;8.20;99.90;;;;;;6244835;22;20421;-82
2022/11/17 01:46:26;;;;;;;18.38;13.32;;;8.20;99.90;;;;;;6265783;22;20087;-82
2022/11/17 01:48:58;;;;;;;19.17;13.30;;;8.10;99.90;;;;;;6219872;22;20054;-82
2022/11/17 01:51:25;;;;;;;17.70;13.52;;;8.20;99.90;;;;;;6272863;22;20007;-81
2022/11/17 01:53:51;;;;;;;18.20;13.60;;;8.20;99.90;;;;;;6272961;22;20015;-82
2022/11/17 01:56:25;;;;;;;18.13;13.15;;;8.10;99.90;;;;;;6271906;22;20015;-82
2022/11/17 01:58:57;;;;;;;19.25;13.90;;;8.10;99.90;;;;;;6245105;22;20438;-82
2022/11/17 02:01:22;;;;;;;20.38;13.57;;;8.10;99.90;;;;;;6245324;22;20031;-82
2022/11/17 02:03:49;;;;;;;19.52;13.10;;;8.10;99.90;;;;;;6245323;22;20428;-82
2022/11/17 02:06:34;;;;;;;17.55;13.00;;;8.10;99.90;;;;;;6245620;22;20012;-82
2022/11/17 02:09:02;;;;;;;19.40;12.23;;;8.10;99.90;;;;;;6271452;22;20218;-82
2022/11/17 02:11:34;;;;;;;18.25;13.02;;;8.10;99.90;;;;;;6271925;22;20077;-82
2022/11/17 02:14:02;;;;;;;17.60;12.57;;;8.10;99.90;;;;;;6272279;22;20098;-82
2022/11/17 02:16:27;;;;;;;18.48;12.45;;;8.10;99.90;;;;;;6245115;22;20016;-82
2022/11/17 02:18:53;;;;;;;18.20;12.80;;;8.10;99.90;;;;;;6219234;22;20340;-82
2022/11/17 02:21:44;;;;;;;17.35;12.95;;;8.10;99.90;;;;;;6219847;22;20468;-82
2022/11/17 02:24:57;;;;;;;16.02;12.25;;;8.10;99.90;;;;;;6244310;22;20025;-82
2022/11/17 02:27:49;;;;;;;16.85;12.23;;;8.10;99.90;;;;;;6093709;23;20013;-82
2022/11/17 02:30:18;;;;;;;22.13;13.07;;;8.10;99.90;;;;;;6118851;23;20053;-81
2022/11/17 02:33:10;;;;;;;16.80;12.95;;;8.10;99.90;;;;;;6094797;23;20022;-82
2022/11/17 02:35:50;;;;;;;19.67;14.45;;;8.10;99.90;;;;;;6118922;23;20109;-81
2022/11/17 02:38:16;;;;;;;20.35;14.60;;;8.00;99.90;;;;;;6092663;23;20765;-81
2022/11/17 02:40:53;;;;;;;17.67;14.30;;;8.00;99.90;;;;;;6069944;23;20014;-82
2022/11/17 02:46:16;;;;;;;21.02;14.68;;;8.00;99.90;;;;;;6094228;23;20017;-82
2022/11/17 02:49:05;;;;;;;20.15;14.32;;;8.00;99.90;;;;;;6118999;23;20110;-81
2022/11/17 02:51:34;;;;;;;20.13;14.55;;;7.90;99.90;;;;;;6093744;23;20073;-81
2022/11/17 02:54:01;;;;;;;22.13;15.40;;;7.90;99.90;;;;;;6117964;23;20458;-82
2022/11/17 02:56:26;;;;;;;22.13;15.35;;;7.90;99.90;;;;;;6118937;23;20025;-82
2022/11/17 02:58:56;;;;;;;21.38;15.60;;;7.80;99.90;;;;;;6094109;23;20025;-82
2022/11/17 03:02:19;;;;;;;24.08;16.85;;;7.90;99.90;;;;;;6196656;22;20020;-82
2022/11/17 03:05:21;;;;;;;23.40;16.52;;;7.80;99.90;;;;;;6221732;22;20087;-82
2022/11/17 03:07:57;;;;;;;23.42;15.98;;;7.80;99.90;;;;;;6274299;22;20030;-82
2022/11/17 03:10:41;;;;;;;24.77;16.85;;;7.80;99.90;;;;;;6245480;22;20016;-82
2022/11/17 03:13:21;;;;;;;26.83;16.85;;;7.70;99.90;;;;;;6273285;22;20068;-82
2022/11/17 03:16:13;;;;;;;25.80;16.80;;;7.70;99.90;;;;;;6274517;22;20011;-82
2022/11/17 03:18:54;;;;;;;28.67;17.90;;;7.70;99.90;;;;;;6247518;22;20011;-82
2022/11/17 03:21:33;;;;;;;24.52;17.80;;;7.70;99.90;;;;;;6246390;22;20092;-81
2022/11/17 03:24:05;;;;;;;26.35;18.05;;;7.70;99.90;;;;;;6246432;22;20191;-81
2022/11/17 03:26:35;;;;;;;26.30;17.40;;;7.70;99.90;;;;;;6221674;22;20444;-81
2022/11/17 03:29:05;;;;;;;26.48;17.45;;;7.60;99.90;;;;;;6274360;22;20023;-81
2022/11/17 03:31:33;;;;;;;24.23;17.55;;;7.60;99.90;;;;;;6247482;22;20088;-81
2022/11/17 03:34:01;;;;;;;24.52;18.42;;;7.60;99.90;;;;;;6246953;22;20023;-81
2022/11/17 03:36:37;;;;;;;27.35;17.55;;;7.60;99.90;;;;;;6273169;22;20043;-82
2022/11/17 03:39:18;;;;;;;25.95;18.27;;;7.50;99.90;;;;;;6273461;22;20451;-82
2022/11/17 03:41:47;;;;;;;29.40;19.20;;;7.50;99.90;;;;;;6221887;22;20027;-81
2022/11/17 03:44:16;;;;;;;29.70;18.92;;;7.50;99.90;;;;;;6246566;22;20019;-81
2022/11/17 03:46:44;;;;;;;28.10;19.25;;;7.50;99.90;;;;;;6274414;22;20008;-82
2022/11/17 03:49:36;;;;;;;25.67;18.55;;;7.50;99.90;;;;;;6274014;22;20015;-82
2022/11/17 03:52:02;;;;;;;26.23;18.05;;;7.50;99.90;;;;;;6273817;22;20007;-82
2022/11/17 03:54:28;;;;;;;28.95;18.52;;;7.50;99.90;;;;;;6274121;22;20029;-82
2022/11/17 03:57:15;;;;;;;27.80;18.58;;;7.40;99.90;;;;;;6275021;22;20445;-82
2022/11/17 04:00:04;;;;;;;29.70;18.45;;;7.40;99.90;;;;;;6247744;22;20016;-82
2022/11/17 04:02:30;;;;;;;23.45;17.08;;;7.40;99.90;;;;;;6222167;22;20042;-82
2022/11/17 04:05:05;;;;;;;31.20;18.45;;;7.30;99.90;;;;;;6247090;22;20418;-82
2022/11/17 04:07:36;;;;;;;28.08;19.08;;;7.40;99.90;;;;;;6247199;22;20352;-81
2022/11/17 04:10:03;;;;;;;29.75;19.35;;;7.30;99.90;;;;;;6247354;22;20039;-82
2022/11/17 04:17:58;;;;;;;24.95;17.77;;;7.30;99.90;;;;;;6273689;22;19961;-81
2022/11/17 04:20:24;;;;;;;24.95;16.95;;;7.30;99.90;;;;;;6272825;22;20030;-82
2022/11/17 04:23:08;;;;;;;25.98;17.70;;;7.20;99.90;;;;;;6247319;22;20012;-81
2022/11/17 04:28:37;;;;;;;24.85;15.98;;;7.20;99.90;;;;;;6273289;22;20015;-81
2022/11/17 04:31:24;;;;;;;24.75;15.73;;;7.20;99.90;;;;;;6273643;22;20317;-82
2022/11/17 04:33:55;;;;;;;24.38;16.70;;;7.20;99.90;;;;;;6220358;22;20012;-81
2022/11/17 04:36:23;;;;;;;23.95;15.95;;;7.20;99.90;;;;;;6273311;22;20982;-81
2022/11/17 04:38:51;;;;;;;27.38;17.23;;;7.20;99.90;;;;;;6272617;22;20065;-82
2022/11/17 04:44:05;;;;;;;25.48;17.88;;;7.10;99.90;;;;;;6246034;22;20691;-82
2022/11/17 04:46:32;;;;;;;24.50;16.05;;;7.10;99.90;;;;;;6245772;22;20055;-82
2022/11/17 04:48:59;;;;;;;27.30;15.57;;;7.10;99.90;;;;;;6273255;22;20015;-82
2022/11/17 04:51:25;;;;;;;22.17;14.43;;;7.10;99.90;;;;;;6246232;22;20047;-82
2022/11/17 04:53:51;;;;;;;22.30;14.70;;;7.00;99.90;;;;;;6246327;22;20055;-82
2022/11/17 04:56:21;;;;;;;21.20;13.70;;;7.00;99.90;;;;;;6245048;22;20808;-82
2022/11/17 04:58:48;;;;;;;19.33;13.48;;;7.00;99.90;;;;;;6246179;22;20012;-82
2022/11/17 05:01:16;;;;;;;20.83;13.93;;;7.20;99.90;;;;;;6245576;22;20431;-82
2022/11/17 05:03:41;;;;;;;20.55;14.15;;;7.00;99.90;;;;;;6244427;22;20023;-82
2022/11/17 05:06:08;;;;;;;20.42;14.25;;;7.00;99.90;;;;;;6245591;22;20015;-82
2022/11/17 05:08:36;;;;;;;21.92;14.05;;;7.00;99.90;;;;;;6245533;22;20011;-82
2022/11/17 05:13:47;;;;;;;;;;;7.00;99.90;;;;;;6273744;22;20030;-82
2022/11/17 05:18:57;;;;;;;20.67;13.98;;;6.90;99.90;;;;;;6272374;22;20024;-82
2022/11/17 05:21:22;;;;;;;21.05;14.07;;;6.90;99.90;;;;;;6246034;22;20058;-82
2022/11/17 05:23:54;;;;;;;22.13;14.57;;;6.90;99.90;;;;;;6245424;22;20015;-82
2022/11/17 05:26:25;;;;;;;21.38;14.23;;;6.80;99.90;;;;;;6272894;22;20010;-82
2022/11/17 05:28:53;;;;;;;18.35;13.05;;;6.80;99.90;;;;;;6245612;22;20015;-82
2022/11/17 05:31:18;;;;;;;21.10;12.85;;;6.80;99.90;;;;;;6272719;22;20087;-82
2022/11/17 05:33:44;;;;;;;20.15;14.05;;;6.80;99.90;;;;;;6272331;22;20088;-82
2022/11/17 05:36:09;;;;;;;20.40;14.68;;;7.00;99.90;;;;;;6245252;22;20043;-82
2022/11/17 05:38:35;;;;;;;20.80;13.63;;;6.80;99.90;;;;;;6245122;22;20223;-82
2022/11/17 05:41:01;;;;;;;19.73;13.60;;;6.70;99.90;;;;;;6272421;22;20015;-81
2022/11/17 05:43:27;;;;;;;18.50;12.60;;;7.00;99.90;;;;;;6246149;22;20033;-82
2022/11/17 05:45:53;;;;;;;18.67;12.77;;;6.70;99.90;;;;;;6273204;22;20018;-82
2022/11/17 05:48:19;;;;;;;17.33;12.32;;;6.70;99.90;;;;;;6244598;22;20008;-82
2022/11/17 05:50:44;;;;;;;16.80;11.35;;;6.70;99.90;;;;;;6272696;22;20352;-82
2022/11/17 05:53:10;;;;;;;15.63;11.25;;;7.10;99.90;;;;;;6243961;22;20023;-82
2022/11/17 05:55:36;;;;;;;17.35;12.27;;;6.70;99.90;;;;;;6271768;22;20015;-81
2022/11/17 05:58:25;;;;;;;15.57;10.55;;;6.70;99.90;;;;;;6270902;22;20326;-82
2022/11/17 06:00:52;;;;;;;15.57;10.48;;;6.70;99.90;;;;;;6271422;22;20023;-82
2022/11/17 06:03:25;;;;;;;14.95;10.68;;;6.70;99.90;;;;;;6245837;22;20012;-82
2022/11/17 06:05:52;;;;;;;17.05;10.45;;;6.70;99.90;;;;;;6273479;22;20055;-82
2022/11/17 06:08:19;;;;;;;15.02;10.80;;;6.70;99.90;;;;;;6243271;22;20047;-82
2022/11/17 06:10:45;;;;;;;16.08;11.02;;;6.70;99.90;;;;;;6272625;22;20098;-83
2022/11/17 06:13:10;;;;;;;15.73;9.70;;;6.70;99.90;;;;;;6273099;22;20023;-82
2022/11/17 06:15:37;;;;;;;13.82;10.10;;;6.70;99.90;;;;;;6272003;22;20089;-82
2022/11/17 06:18:10;;;;;;;13.75;9.18;;;6.70;99.90;;;;;;6274139;22;20012;-84
2022/11/17 06:20:44;;;;;;;14.60;10.40;;;6.70;99.90;;;;;;6248080;22;20054;-84
2022/11/17 06:23:10;;;;;;;13.75;9.68;;;6.70;99.90;;;;;;6275600;22;20015;-83
2022/11/17 06:25:38;;;;;;;13.50;9.13;;;6.60;99.90;;;;;;6274930;22;20080;-83
2022/11/17 06:28:09;;;;;;;14.25;9.90;;;6.70;99.90;;;;;;6276185;22;20019;-82
2022/11/17 06:30:36;;;;;;;15.35;10.32;;;6.70;99.90;;;;;;6271867;22;20016;-83
2022/11/17 06:33:03;;;;;;;17.20;9.88;;;6.70;99.90;;;;;;6271819;22;20011;-83
2022/11/17 06:35:32;;;;;;;14.40;9.73;;;6.70;99.90;;;;;;6271331;22;20023;-84
2022/11/17 06:38:01;;;;;;;11.95;8.88;;;6.70;99.90;;;;;;6244714;22;20085;-83
2022/11/17 06:40:27;;;;;;;12.38;8.43;;;6.70;99.90;;;;;;6245860;22;20067;-83
2022/11/17 06:43:11;;;;;;;15.60;10.00;;;6.70;99.90;;;;;;6244115;22;20011;-83
2022/11/17 06:45:46;;;;;;;14.25;9.57;;;6.70;99.90;;;;;;6273517;22;20042;-83
2022/11/17 06:48:14;;;;;;;12.35;9.10;;;6.70;99.90;;;;;;6247723;22;20008;-84
2022/11/17 06:50:40;;;;;;;13.18;8.70;;;6.70;99.90;;;;;;6245714;22;20015;-83
2022/11/17 06:53:08;;;;;;;13.52;9.40;;;6.70;99.90;;;;;;6271490;22;20011;-82
2022/11/17 06:55:34;;;;;;;13.43;9.02;;;6.80;99.90;;;;;;6270980;22;20019;-84
2022/11/17 06:58:03;;;;;;;14.70;9.32;;;6.70;99.90;;;;;;6271983;22;20058;-84
2022/11/17 07:00:29;;;;;;;12.77;9.05;;;6.70;99.90;;;;;;6271089;22;20016;-83
2022/11/17 07:02:59;;;;;;;13.32;9.73;;;6.70;99.90;;;;;;6272359;22;20008;-84
2022/11/17 07:05:26;;;;;;;13.10;9.07;;;6.60;99.90;;;;;;6271130;22;20012;-84
2022/11/17 07:07:55;;;;;;;15.50;9.15;;;6.70;99.90;;;;;;6243171;22;20436;-84
2022/11/17 07:10:20;;;;;;;12.68;8.63;;;6.60;99.90;;;;;;6271249;22;20066;-84
2022/11/17 07:12:46;;;;;;;13.02;9.35;;;6.70;99.90;;;;;;6271836;22;20016;-85
2022/11/17 07:15:11;;;;;;;14.18;9.20;;;6.60;99.90;;;;;;6243318;22;20417;-84
2022/11/17 07:17:37;;;;;;;14.00;9.13;;;6.60;99.90;;;;;;6243299;22;20016;-85
2022/11/17 07:20:03;;;;;;;14.18;8.88;;;6.70;99.90;;;;;;6269752;22;20463;-84
2022/11/17 07:22:28;;;;;;;13.95;9.43;;;6.60;99.90;;;;;;6270790;22;20019;-83
2022/11/17 07:24:54;;;;;;;14.35;9.10;;;6.60;99.90;;;;;;6216336;22;20011;-84
2022/11/17 07:27:20;;;;;;;12.35;8.88;;;6.60;99.90;;;;;;6244209;22;20083;-85
2022/11/17 07:29:45;;;;;;;12.57;8.57;;;6.60;99.90;;;;;;6243924;22;20019;-85
2022/11/17 07:32:12;;;;;;;11.63;8.13;;;6.60;99.90;;;;;;6244036;22;20027;-84
2022/11/17 07:34:38;;;;;;;12.25;8.55;;;6.70;99.90;;;;;;6242963;22;20012;-83
2022/11/17 07:37:04;;;;;;;13.55;8.63;;;6.60;99.90;;;;;;6242474;22;20012;-85
2022/11/17 07:39:30;;;;;;;12.65;8.23;;;6.60;99.90;;;;;;6241767;22;20050;-85
2022/11/17 07:41:55;;;;;;;12.48;8.10;;;6.60;99.90;;;;;;6270003;22;20046;-85
2022/11/17 07:44:21;;;;;;;12.75;8.05;;;6.60;99.90;;;;;;6269778;22;20024;-85
2022/11/17 07:46:46;;;;;;;11.90;7.95;;;6.60;99.90;;;;;;6243357;22;20421;-85
2022/11/17 07:49:12;;;;;;;11.63;8.18;;;6.60;99.90;;;;;;6243127;22;20035;-85
2022/11/17 07:51:37;;;;;;;11.52;7.85;;;6.60;99.90;;;;;;6272765;22;20379;-86
2022/11/17 07:54:03;;;;;;;12.00;7.25;;;6.60;99.90;;;;;;6218389;22;20051;-85
2022/11/17 07:56:29;;;;;;;11.70;7.30;;;6.60;99.90;;;;;;6272298;22;20019;-85
2022/11/17 07:58:54;;;;;;;13.30;7.25;;;6.60;99.90;;;;;;6244548;22;20141;-86
2022/11/17 08:01:20;;;;;;;10.35;6.78;;;6.60;99.90;;;;;;6271097;22;20043;-85
2022/11/17 08:03:46;;;;;;;11.52;7.93;;;6.60;99.90;;;;;;6242875;22;20440;-85
2022/11/17 08:06:11;;;;;;;12.38;7.50;;;6.60;99.90;;;;;;6245051;22;20069;-85
2022/11/17 08:08:38;;;;;;;10.55;6.97;;;6.60;99.90;;;;;;6271674;22;20008;-85
2022/11/17 08:11:05;;;;;;;9.25;6.43;;;6.60;99.90;;;;;;6243866;22;20020;-85
2022/11/17 08:13:34;;;;;;;10.30;7.03;;;6.60;99.90;;;;;;6219078;22;20098;-85
2022/11/17 08:16:00;;;;;;;10.68;7.05;;;6.60;99.90;;;;;;6244441;22;20012;-85
2022/11/17 08:18:26;;;;;;;11.07;7.43;;;6.60;99.90;;;;;;6244890;22;20102;-85
2022/11/17 08:20:58;;;;;;;10.77;6.63;;;6.60;99.90;;;;;;6272073;22;20019;-85
2022/11/17 08:23:24;;;;;;;10.00;7.07;;;6.60;99.90;;;;;;6271287;22;20075;-85
2022/11/17 08:25:49;;;;;;;11.75;7.35;;;6.70;99.90;;;;;;6270782;22;20046;-85
2022/11/17 08:28:15;;;;;;;12.02;7.45;;;6.70;99.90;;;;;;6271166;22;20012;-85
2022/11/17 08:30:43;;;;;;;11.02;7.60;;;6.70;99.90;;;;;;6271242;22;20118;-84
2022/11/17 08:33:08;;;;;;;11.73;8.18;;;6.70;99.90;;;;;;6242648;22;20455;-85
2022/11/17 08:35:34;;;;;;;11.85;8.05;;;6.70;99.90;;;;;;6271693;22;20082;-85
2022/11/17 08:38:00;;;;;;;13.00;7.55;;;6.70;99.90;;;;;;6243714;22;20019;-85
2022/11/17 08:40:26;;;;;;;11.52;7.90;;;6.70;99.90;;;;;;6271733;22;20012;-84
2022/11/17 08:42:53;;;;;;;11.32;7.68;;;6.70;99.90;;;;;;6219326;22;20097;-84
2022/11/17 08:45:19;;;;;;;11.25;7.90;;;6.70;99.90;;;;;;6244288;22;20004;-84
2022/11/17 08:47:45;;;;;;;12.45;8.23;;;6.70;99.90;;;;;;6243838;22;20357;-84
2022/11/17 08:50:10;;;;;;;12.63;8.07;;;6.70;99.90;;;;;;6244216;22;20024;-84
2022/11/17 08:52:36;;;;;;;12.35;8.57;;;6.80;99.90;;;;;;6243717;22;20019;-84
2022/11/17 08:55:04;;;;;;;14.57;8.75;;;6.80;99.90;;;;;;6244322;22;20015;-85
2022/11/17 08:57:30;;;;;;;13.55;9.07;;;6.80;99.90;;;;;;6271021;22;20011;-85
2022/11/17 08:59:56;;;;;;;13.90;8.98;;;6.80;99.90;;;;;;6271791;22;20016;-84
2022/11/17 09:02:22;;;;;;;13.55;8.88;;;6.80;99.90;;;;;;6271661;22;20008;-84
2022/11/17 09:04:49;;;;;;;12.88;8.50;;;6.80;99.90;;;;;;6218552;22;20014;-84
2022/11/17 09:07:15;;;;;;;13.05;9.00;;;6.80;99.90;;;;;;6242746;22;20058;-84
2022/11/17 09:09:40;;;;;;;11.57;7.88;;;6.80;99.90;;;;;;6271579;22;20019;-83
2022/11/17 09:12:06;;;;;;;14.38;8.70;;;6.90;99.90;;;;;;6219024;22;20062;-84
2022/11/17 09:14:32;;;;;;;13.43;9.27;;;6.80;99.90;;;;;;6270990;22;20019;-83
2022/11/17 09:17:00;;;;;;;13.45;8.70;;;6.80;99.90;;;;;;6244462;22;20007;-84
2022/11/17 09:19:26;;;;;;;14.55;8.73;;;6.80;99.90;;;;;;6213891;23;20075;-84
2022/11/17 09:21:52;;;;;;;13.70;8.60;;;6.80;99.90;;;;;;6214587;23;20417;-84
2022/11/17 09:24:17;;;;;;;12.77;8.68;;;6.70;99.90;;;;;;6213503;23;20082;-84
2022/11/17 09:26:43;;;;;;;13.15;8.30;;;6.80;99.90;;;;;;6214105;23;20491;-84
2022/11/17 09:29:09;;;;;;;12.90;7.80;;;6.80;99.90;;;;;;6213920;23;20344;-84
2022/11/17 09:31:35;;;;;;;13.35;8.90;;;6.80;99.90;;;;;;6240194;23;20066;-88
2022/11/17 09:34:01;;;;;;;10.85;8.10;;;6.80;99.90;;;;;;6212679;23;20020;-84
2022/11/17 09:36:26;;;;;;;11.77;8.02;;;6.90;99.90;;;;;;6240658;23;20016;-84
2022/11/17 09:38:52;;;;;;;11.18;7.63;;;6.80;99.90;;;;;;6212515;23;20440;-84
2022/11/17 09:41:23;;;;;;;11.63;7.50;;;6.70;99.90;;;;;;6213871;23;20066;-85
2022/11/17 09:44:03;;;;;;;11.60;7.82;;;7.00;99.90;;;;;;6240430;23;20012;-83
2022/11/17 09:46:48;;;;;;;13.52;7.78;;;6.80;99.90;;;;;;6239669;23;20070;-84
2022/11/17 09:49:44;;;;;;;11.27;6.78;;;6.80;99.90;;;;;;6240157;23;20140;-84
2022/11/17 09:52:31;;;;;;;11.52;7.38;;;6.80;99.90;;;;;;6240092;23;20012;-84
2022/11/17 09:55:17;;;;;;;11.65;7.85;;;6.80;99.90;;;;;;6213150;23;20020;-84
2022/11/17 09:57:47;;;;;;;10.23;7.18;;;6.80;99.90;;;;;;6240875;23;20078;-84
2022/11/17 10:00:18;;;;;;;11.38;7.43;;;6.80;99.90;;;;;;6212348;23;20094;-84
2022/11/17 10:02:45;;;;;;;11.95;7.60;;;6.80;99.90;;;;;;6213844;23;20020;-83
2022/11/17 10:05:15;;;;;;;10.80;7.90;;;6.80;99.90;;;;;;6239152;23;20023;-83
2022/11/17 10:07:52;;;;;;;13.27;7.72;;;6.80;99.90;;;;;;6238899;23;20451;-82
2022/11/17 10:10:41;;;;;;;10.60;7.18;;;6.80;99.90;;;;;;6240980;23;20012;-83
2022/11/17 10:13:20;;;;;;;12.50;8.02;;;6.80;99.90;;;;;;6240890;23;20020;-83
2022/11/17 10:15:50;;;;;;;10.05;7.43;;;6.80;99.90;;;;;;6213290;23;20016;-82
2022/11/17 10:18:16;;;;;;;11.82;7.82;;;6.80;99.90;;;;;;6213182;23;20096;-83
2022/11/17 10:20:42;;;;;;;11.15;7.07;;;6.80;99.90;;;;;;6188421;23;20449;-82
2022/11/17 10:23:17;;;;;;;10.07;7.00;;;6.80;99.90;;;;;;6240337;23;20024;-83
2022/11/17 10:25:44;;;;;;;;;;;6.80;99.90;;;;;;6187787;23;20090;-83
2022/11/17 10:28:26;;;;;;;11.02;7.70;;;6.90;99.90;;;;;;6187081;23;19965;-83
2022/11/17 10:30:55;;;;;;;10.63;7.57;;;6.90;99.90;;;;;;6187428;23;20012;-83
2022/11/17 10:33:42;;;;;;;12.27;7.60;;;6.90;99.90;;;;;;6187979;23;20008;-83
2022/11/17 10:36:24;;;;;;;10.43;7.20;;;6.90;99.90;;;;;;6213323;23;20016;-83
2022/11/17 10:38:53;;;;;;;9.32;7.05;;;6.90;99.90;;;;;;6212884;23;20437;-82
2022/11/17 10:41:22;;;;;;;10.80;7.57;;;6.90;99.90;;;;;;6187482;23;20473;-83
2022/11/17 10:44:02;;;;;;;10.75;7.65;;;6.90;99.90;;;;;;6213026;23;20012;-83
2022/11/17 10:46:28;;;;;;;10.05;6.90;;;6.90;99.90;;;;;;6187717;23;20448;-83
2022/11/17 10:48:53;;;;;;;9.90;6.70;;;6.90;99.90;;;;;;6187182;23;20506;-82
2022/11/17 10:51:19;;;;;;;10.68;6.65;;;6.90;99.90;;;;;;6213050;23;20017;-83
2022/11/17 10:53:58;;;;;;;10.27;7.35;;;6.90;99.90;;;;;;6212728;23;20016;-82
2022/11/17 10:56:24;;;;;;;10.30;6.93;;;6.90;99.90;;;;;;6213165;23;20345;-83
2022/11/17 10:58:57;;;;;;;10.00;6.47;;;7.00;99.90;;;;;;6213029;23;20016;-83
2022/11/17 11:01:37;;;;;;;10.07;6.63;;;7.00;99.90;;;;;;6212851;23;20468;-82
2022/11/17 11:04:05;;;;;;;8.30;6.28;;;7.00;99.90;;;;;;6186425;23;20424;-81
2022/11/17 11:06:32;;;;;;;8.70;5.95;;;7.00;99.90;;;;;;6211099;23;20031;-82
2022/11/17 11:09:17;;;;;;;9.73;6.47;;;7.00;99.90;;;;;;6211901;23;20043;-82
2022/11/17 11:11:46;;;;;;;10.27;6.28;;;7.00;99.90;;;;;;6211620;23;20066;-82
2022/11/17 11:14:14;;;;;;;10.75;6.15;;;7.10;99.90;;;;;;6211450;23;20024;-82
2022/11/17 11:16:41;;;;;;;9.88;6.90;;;7.10;99.90;;;;;;6213112;23;20016;-83
2022/11/17 11:19:13;;;;;;;8.88;6.13;;;7.10;99.90;;;;;;6212565;23;20375;-82
2022/11/17 11:22:14;;;;;;;8.68;5.88;;;7.10;99.90;;;;;;6213634;23;20012;-82
2022/11/17 11:25:10;;;;;;;8.48;5.40;;;7.10;99.90;;;;;;6242487;23;20019;-82
2022/11/17 11:27:55;;;;;;;9.77;6.43;;;7.10;99.90;;;;;;6215421;23;20016;-82
2022/11/17 11:30:20;;;;;;;10.65;5.78;;;7.10;99.90;;;;;;6215103;23;20102;-82
2022/11/17 11:33:14;;;;;;;9.65;6.20;;;7.10;99.90;;;;;;6241722;23;20019;-82
2022/11/17 11:36:04;;;;;;;10.80;6.60;;;7.10;99.90;;;;;;6213494;23;20445;-82
2022/11/17 11:38:51;;;;;;;9.60;6.63;;;7.20;99.90;;;;;;6241266;23;20008;-81
2022/11/17 11:41:16;;;;;;;9.10;6.68;;;7.20;99.90;;;;;;6240894;23;20012;-81
2022/11/17 11:44:01;;;;;;;9.25;6.40;;;7.20;99.90;;;;;;6214541;23;20095;-82
2022/11/17 11:46:43;;;;;;;8.82;6.18;;;7.20;99.90;;;;;;6241043;23;20016;-82
2022/11/17 11:49:39;;;;;;;10.05;6.68;;;7.20;99.90;;;;;;6241636;23;20067;-82
2022/11/17 11:52:15;;;;;;;10.55;6.93;;;7.10;99.90;;;;;;6242913;23;20016;-82
2022/11/17 11:54:43;;;;;;;10.90;6.68;;;7.20;99.90;;;;;;6241574;23;20070;-82
2022/11/17 11:57:14;;;;;;;9.30;6.68;;;7.10;99.90;;;;;;6242378;23;20595;-82
2022/11/17 12:00:17;;;;;;;10.80;7.25;;;7.20;99.90;;;;;;6242479;23;20055;-84
2022/11/17 12:02:51;;;;;;;10.45;6.75;;;7.20;99.90;;;;;;6235025;23;20020;-83
2022/11/17 12:05:55;;;;;;;10.55;7.20;;;7.20;99.90;;;;;;6240136;23;20062;-84
2022/11/17 12:08:44;;;;;;;10.10;6.75;;;7.10;99.90;;;;;;6241936;23;20020;-84
2022/11/17 12:14:04;;;;;;;10.68;6.53;;;7.20;99.90;;;;;;6214939;23;20020;-84
2022/11/17 12:16:33;;;;;;;9.57;6.25;;;7.20;99.90;;;;;;6242630;23;20083;-84
2022/11/17 12:18:59;;;;;;;9.63;6.38;;;7.20;99.90;;;;;;6214719;23;20024;-84
2022/11/17 12:21:26;;;;;;;10.48;6.70;;;7.20;99.90;;;;;;6188997;23;20012;-83
2022/11/17 12:24:15;;;;;;;10.88;6.47;;;7.20;99.90;;;;;;6241778;23;20020;-83
2022/11/17 12:26:41;;;;;;;8.90;5.88;;;7.20;99.90;;;;;;6214720;23;20343;-84
2022/11/17 12:29:19;;;;;;;10.07;6.63;;;7.20;99.90;;;;;;6242227;23;20012;-84
2022/11/17 12:31:56;;;;;;;9.32;6.05;;;7.20;99.90;;;;;;6241735;23;20463;-84
2022/11/17 12:34:23;;;;;;;9.85;6.18;;;7.20;99.90;;;;;;6188368;23;20024;-84
2022/11/17 12:37:13;;;;;;;8.15;5.53;;;7.20;99.90;;;;;;6213902;23;20071;-84
2022/11/17 12:40:02;;;;;;;8.55;5.32;;;7.20;99.90;;;;;;6241433;23;20387;-83
2022/11/17 12:42:33;;;;;;;9.05;6.22;;;7.20;99.90;;;;;;6241181;23;20066;-84
2022/11/17 12:45:03;;;;;;;8.50;6.07;;;7.20;99.90;;;;;;6241442;23;20487;-84
2022/11/17 12:47:30;;;;;;;7.90;5.57;;;7.20;99.90;;;;;;6240950;23;20130;-84
2022/11/17 12:50:08;;;;;;;9.48;5.57;;;7.20;99.90;;;;;;6213777;23;20016;-84
2022/11/17 12:52:43;;;;;;;9.07;5.63;;;7.20;99.90;;;;;;6214212;23;20095;-83
2022/11/17 12:55:27;;;;;;;10.05;6.05;;;7.20;99.90;;;;;;6213167;23;20387;-84
2022/11/17 12:58:20;;;;;;;9.17;5.53;;;7.30;99.90;;;;;;6214198;23;20008;-85
2022/11/17 13:00:58;;;;;;;9.77;5.82;;;7.30;99.90;;;;;;6215372;23;20023;-84
2022/11/17 13:03:49;;;;;;;8.40;5.32;;;7.30;99.90;;;;;;6239420;23;20012;-84
2022/11/17 13:06:16;;;;;;;8.55;5.32;;;7.40;99.90;;;;;;6224817;23;20275;-84
2022/11/17 13:09:04;;;;;;;9.13;5.50;;;7.40;99.90;;;;;;6241448;23;20012;-83
2022/11/17 13:11:30;;;;;;;7.75;5.40;;;7.40;99.90;;;;;;6242070;23;20070;-84
2022/11/17 13:14:05;;;;;;;7.25;4.90;;;7.40;99.90;;;;;;6241011;23;20016;-85
2022/11/17 13:16:31;;;;;;;9.25;5.45;;;7.40;99.90;;;;;;6240688;23;20031;-85
2022/11/17 13:18:57;;;;;;;8.32;5.43;;;7.40;99.90;;;;;;6215158;23;20016;-84
2022/11/17 13:21:27;;;;;;;8.80;5.80;;;7.50;99.90;;;;;;6213691;23;20022;-83
2022/11/17 13:23:53;;;;;;;9.30;5.28;;;7.90;99.90;;;;;;6241172;23;20018;-84
2022/11/17 13:26:22;;;;;;;7.63;5.45;;;7.50;99.90;;;;;;6241761;23;20395;-83
2022/11/17 13:29:00;;;;;;;9.75;5.93;;;7.40;99.90;;;;;;6240671;23;20074;-84
2022/11/17 13:31:26;;;;;;;8.70;5.72;;;7.40;99.90;;;;;;6241413;23;20012;-84
2022/11/17 13:33:58;;;;;;;8.82;6.15;;;7.40;99.90;;;;;;6241778;23;20027;-84
2022/11/17 13:36:26;;;;;;;9.00;5.45;;;7.50;99.90;;;;;;6241610;23;20035;-85
2022/11/17 13:38:59;;;;;;;9.63;5.35;;;7.40;99.90;;;;;;6213514;23;20511;-85